createdAt,value
2022-07-30T00:00:58.711Z,5.00
2022-07-30T00:01:58.666Z,5.20
2022-07-30T00:02:58.678Z,4.60
2022-07-30T00:03:58.745Z,4.70
2022-07-30T00:04:58.662Z,4.60
2022-07-30T00:06:58.961Z,4.60
2022-07-30T00:07:58.666Z,4.80
2022-07-30T00:08:58.661Z,4.50
2022-07-30T00:09:58.656Z,4.70
2022-07-30T00:10:58.657Z,5.50
2022-07-30T00:11:58.654Z,5.10
2022-07-30T00:12:58.655Z,5.10
2022-07-30T00:13:58.650Z,5.10
2022-07-30T00:14:58.654Z,4.80
2022-07-30T00:15:58.648Z,5.10
2022-07-30T00:16:59.049Z,5.20
2022-07-30T00:17:58.648Z,4.80
2022-07-30T00:18:58.646Z,5.00
2022-07-30T00:19:58.642Z,4.80
2022-07-30T00:20:58.645Z,4.90
2022-07-30T00:21:58.641Z,5.00
2022-07-30T00:22:58.638Z,4.90
2022-07-30T00:24:01.898Z,5.00
2022-07-30T00:24:58.640Z,5.40
2022-07-30T00:25:58.636Z,4.80
2022-07-30T00:26:58.954Z,4.90
2022-07-30T00:27:58.634Z,4.50
2022-07-30T00:28:58.644Z,4.70
2022-07-30T00:29:58.637Z,5.20
2022-07-30T00:31:58.634Z,4.50
2022-07-30T00:32:58.627Z,4.90
2022-07-30T00:33:59.074Z,4.60
2022-07-30T00:34:58.623Z,4.50
2022-07-30T00:35:58.620Z,4.60
2022-07-30T00:36:58.843Z,4.50
2022-07-30T00:37:58.620Z,4.70
2022-07-30T00:38:58.655Z,4.60
2022-07-30T00:39:58.616Z,4.40
2022-07-30T00:40:58.616Z,4.80
2022-07-30T00:41:58.613Z,5.10
2022-07-30T00:42:58.611Z,5.00
2022-07-30T00:43:58.608Z,5.10
2022-07-30T00:44:58.607Z,5.30
2022-07-30T00:45:58.619Z,5.20
2022-07-30T00:46:59.162Z,5.30
2022-07-30T00:47:58.604Z,5.40
2022-07-30T00:48:58.675Z,5.00
2022-07-30T00:49:58.601Z,5.20
2022-07-30T00:50:58.598Z,5.40
2022-07-30T00:51:58.597Z,5.60
2022-07-30T00:52:58.600Z,5.50
2022-07-30T00:53:58.595Z,5.40
2022-07-30T00:54:58.671Z,5.40
2022-07-30T00:55:58.592Z,5.30
2022-07-30T00:56:58.874Z,5.20
2022-07-30T00:57:58.586Z,5.30
2022-07-30T00:58:58.585Z,5.20
2022-07-30T00:59:58.584Z,5.30
2022-07-30T01:00:58.629Z,5.20
2022-07-30T01:01:58.636Z,5.00
2022-07-30T01:02:58.582Z,5.10
2022-07-30T01:03:58.578Z,5.10
2022-07-30T01:04:58.579Z,5.00
2022-07-30T01:05:58.578Z,5.30
2022-07-30T01:06:58.864Z,5.50
2022-07-30T01:07:58.574Z,5.80
2022-07-30T01:08:58.570Z,6.00
2022-07-30T01:09:58.601Z,5.40
2022-07-30T01:10:58.568Z,5.70
2022-07-30T01:11:58.564Z,5.60
2022-07-30T01:14:58.561Z,7.00
2022-07-30T01:15:58.557Z,6.00
2022-07-30T01:16:58.830Z,6.30
2022-07-30T01:17:58.555Z,6.30
2022-07-30T01:18:58.553Z,5.70
2022-07-30T01:19:58.551Z,5.60
2022-07-30T01:20:58.552Z,5.60
2022-07-30T01:21:58.548Z,5.40
2022-07-30T01:22:58.549Z,5.30
2022-07-30T01:23:58.547Z,5.40
2022-07-30T01:24:58.543Z,5.40
2022-07-30T01:25:58.541Z,5.50
2022-07-30T01:26:58.969Z,5.80
2022-07-30T01:27:58.537Z,5.60
2022-07-30T01:28:58.535Z,5.40
2022-07-30T01:29:58.532Z,5.90
2022-07-30T01:32:02.441Z,5.70
2022-07-30T01:32:58.528Z,5.40
2022-07-30T01:33:58.525Z,5.40
2022-07-30T01:34:58.522Z,5.60
2022-07-30T01:35:58.520Z,6.20
2022-07-30T01:36:58.920Z,5.60
2022-07-30T01:37:58.517Z,6.10
2022-07-30T01:38:58.517Z,5.10
2022-07-30T01:39:58.515Z,5.70
2022-07-30T01:40:58.514Z,5.20
2022-07-30T01:41:58.509Z,5.20
2022-07-30T01:42:58.532Z,4.90
2022-07-30T01:43:58.507Z,4.80
2022-07-30T01:44:58.505Z,5.30
2022-07-30T01:45:58.600Z,5.00
2022-07-30T01:46:58.658Z,5.50
2022-07-30T01:47:58.512Z,5.70
2022-07-30T01:48:58.525Z,5.50
2022-07-30T01:49:58.498Z,5.60
2022-07-30T01:50:58.499Z,5.70
2022-07-30T01:51:58.491Z,5.30
2022-07-30T01:52:58.493Z,5.20
2022-07-30T01:53:58.489Z,5.30
2022-07-30T01:54:58.487Z,5.60
2022-07-30T01:55:58.484Z,5.50
2022-07-30T01:56:58.788Z,5.10
2022-07-30T01:57:58.478Z,5.30
2022-07-30T01:58:58.478Z,5.20
2022-07-30T01:59:58.477Z,5.40
2022-07-30T02:00:58.563Z,5.20
2022-07-30T02:01:58.471Z,5.30
2022-07-30T02:02:58.470Z,5.20
2022-07-30T02:03:58.514Z,5.40
2022-07-30T02:04:58.469Z,5.50
2022-07-30T02:05:58.466Z,5.40
2022-07-30T02:06:58.669Z,5.70
2022-07-30T02:07:58.461Z,5.60
2022-07-30T02:08:58.461Z,5.50
2022-07-30T02:09:58.457Z,5.30
2022-07-30T02:10:58.457Z,5.60
2022-07-30T02:11:58.455Z,6.20
2022-07-30T02:12:58.451Z,6.20
2022-07-30T02:13:58.450Z,6.40
2022-07-30T02:14:58.446Z,6.30
2022-07-30T02:15:58.542Z,6.00
2022-07-30T02:16:58.815Z,5.80
2022-07-30T02:17:58.442Z,6.10
2022-07-30T02:18:58.764Z,6.50
2022-07-30T02:19:58.437Z,5.90
2022-07-30T02:20:58.447Z,5.90
2022-07-30T02:21:58.434Z,5.80
2022-07-30T02:22:58.431Z,5.80
2022-07-30T02:23:58.427Z,5.70
2022-07-30T02:24:58.426Z,5.40
2022-07-30T02:25:58.424Z,5.20
2022-07-30T02:26:58.723Z,5.70
2022-07-30T02:27:58.418Z,5.30
2022-07-30T02:28:58.419Z,5.60
2022-07-30T02:29:58.418Z,5.50
2022-07-30T02:30:58.414Z,5.80
2022-07-30T02:31:58.410Z,5.40
2022-07-30T02:32:58.413Z,5.40
2022-07-30T02:33:58.758Z,5.60
2022-07-30T02:34:58.405Z,5.50
2022-07-30T02:35:58.405Z,5.40
2022-07-30T02:36:58.610Z,5.30
2022-07-30T02:37:58.402Z,5.30
2022-07-30T02:38:58.396Z,5.70
2022-07-30T02:39:58.397Z,5.10
2022-07-30T02:40:58.392Z,5.40
2022-07-30T02:41:58.392Z,5.30
2022-07-30T02:42:58.390Z,5.20
2022-07-30T02:43:58.388Z,5.20
2022-07-30T02:44:58.386Z,5.20
2022-07-30T02:45:58.392Z,5.30
2022-07-30T02:46:58.761Z,5.50
2022-07-30T02:47:58.376Z,5.40
2022-07-30T02:48:58.427Z,5.50
2022-07-30T02:49:58.374Z,5.70
2022-07-30T02:50:58.376Z,5.50
2022-07-30T02:51:58.372Z,5.70
2022-07-30T02:52:58.368Z,6.00
2022-07-30T02:53:58.365Z,5.70
2022-07-30T02:54:58.361Z,5.60
2022-07-30T02:55:58.360Z,5.70
2022-07-30T02:56:58.739Z,5.60
2022-07-30T02:57:58.357Z,6.00
2022-07-30T02:58:58.356Z,5.50
2022-07-30T02:59:58.354Z,5.70
2022-07-30T03:00:58.396Z,5.90
2022-07-30T03:01:58.377Z,5.70
2022-07-30T03:02:58.347Z,5.60
2022-07-30T03:03:58.343Z,5.90
2022-07-30T03:04:58.342Z,5.50
2022-07-30T03:05:58.338Z,5.30
2022-07-30T03:06:58.641Z,5.90
2022-07-30T03:07:58.333Z,5.30
2022-07-30T03:08:58.333Z,5.30
2022-07-30T03:09:58.330Z,5.40
2022-07-30T03:10:58.327Z,5.10
2022-07-30T03:11:58.330Z,5.80
2022-07-30T03:12:58.329Z,5.90
2022-07-30T03:13:58.323Z,6.20
2022-07-30T03:14:58.321Z,6.20
2022-07-30T03:15:58.362Z,6.30
2022-07-30T03:16:58.711Z,6.10
2022-07-30T03:17:58.319Z,6.40
2022-07-30T03:18:58.309Z,6.60
2022-07-30T03:19:58.310Z,6.50
2022-07-30T03:20:58.310Z,6.40
2022-07-30T03:21:58.308Z,6.30
2022-07-30T03:22:58.309Z,6.20
2022-07-30T03:23:58.298Z,6.20
2022-07-30T03:24:58.294Z,6.40
2022-07-30T03:25:58.293Z,5.90
2022-07-30T03:26:58.787Z,5.60
2022-07-30T03:27:58.289Z,6.00
2022-07-30T03:28:58.289Z,5.80
2022-07-30T03:29:58.296Z,5.90
2022-07-30T03:30:58.780Z,6.10
2022-07-30T03:31:58.341Z,6.20
2022-07-30T03:32:58.277Z,6.40
2022-07-30T03:33:58.732Z,6.50
2022-07-30T03:35:00.974Z,6.40
2022-07-30T03:35:58.271Z,6.20
2022-07-30T03:36:58.654Z,6.20
2022-07-30T03:37:58.271Z,5.80
2022-07-30T03:38:58.266Z,6.20
2022-07-30T03:39:58.267Z,6.60
2022-07-30T03:40:58.258Z,6.30
2022-07-30T03:41:58.257Z,6.90
2022-07-30T03:42:58.255Z,6.30
2022-07-30T03:43:58.255Z,6.90
2022-07-30T03:44:58.250Z,6.20
2022-07-30T03:45:58.251Z,7.10
2022-07-30T03:46:58.659Z,6.80
2022-07-30T03:47:58.257Z,6.70
2022-07-30T03:48:58.286Z,6.90
2022-07-30T03:49:58.241Z,6.80
2022-07-30T03:50:58.234Z,6.50
2022-07-30T03:51:58.238Z,6.90
2022-07-30T03:52:58.241Z,6.70
2022-07-30T03:53:58.231Z,7.40
2022-07-30T03:54:58.225Z,7.10
2022-07-30T03:55:58.224Z,7.30
2022-07-30T03:56:58.647Z,7.30
2022-07-30T03:57:58.226Z,7.40
2022-07-30T03:58:58.217Z,7.40
2022-07-30T03:59:58.432Z,7.20
2022-07-30T04:00:58.250Z,7.10
2022-07-30T04:01:58.236Z,7.10
2022-07-30T04:02:58.208Z,7.10
2022-07-30T04:03:58.242Z,7.20
2022-07-30T04:04:58.206Z,7.10
2022-07-30T04:05:58.207Z,6.80
2022-07-30T04:06:58.435Z,6.00
2022-07-30T04:07:58.196Z,7.60
2022-07-30T04:08:58.195Z,7.20
2022-07-30T04:09:58.195Z,8.20
2022-07-30T04:10:58.192Z,7.50
2022-07-30T04:11:58.190Z,6.90
2022-07-30T04:12:58.187Z,7.10
2022-07-30T04:13:58.181Z,7.50
2022-07-30T04:14:58.177Z,7.80
2022-07-30T04:16:38.391Z,7.70
2022-07-30T04:16:58.666Z,7.00
2022-07-30T04:17:58.178Z,7.50
2022-07-30T04:18:58.169Z,7.70
2022-07-30T04:19:58.166Z,7.70
2022-07-30T04:20:58.166Z,7.40
2022-07-30T04:21:58.164Z,8.00
2022-07-30T04:22:58.162Z,7.60
2022-07-30T04:24:03.925Z,8.10
2022-07-30T04:24:58.156Z,7.70
2022-07-30T04:25:58.154Z,7.90
2022-07-30T04:26:58.493Z,7.70
2022-07-30T04:28:03.340Z,7.90
2022-07-30T04:28:58.144Z,7.60
2022-07-30T04:29:58.143Z,7.70
2022-07-30T04:30:58.200Z,8.10
2022-07-30T04:31:58.141Z,7.70
2022-07-30T04:32:58.134Z,8.00
2022-07-30T04:34:01.093Z,7.70
2022-07-30T04:34:58.129Z,7.70
2022-07-30T04:35:58.134Z,8.30
2022-07-30T04:36:58.410Z,8.00
2022-07-30T04:37:58.133Z,8.00
2022-07-30T04:38:58.134Z,7.90
2022-07-30T04:39:58.117Z,8.50
2022-07-30T04:40:58.132Z,7.90
2022-07-30T04:41:58.121Z,8.10
2022-07-30T04:42:58.111Z,7.70
2022-07-30T04:43:58.113Z,8.20
2022-07-30T04:44:58.109Z,8.40
2022-07-30T04:45:58.107Z,8.50
2022-07-30T04:46:58.415Z,8.60
2022-07-30T04:47:58.131Z,8.70
2022-07-30T04:48:58.176Z,9.30
2022-07-30T04:49:58.095Z,9.30
2022-07-30T04:50:58.092Z,9.00
2022-07-30T04:51:58.088Z,9.30
2022-07-30T04:52:58.100Z,9.50
2022-07-30T04:53:58.086Z,9.80
2022-07-30T04:54:58.082Z,9.30
2022-07-30T04:55:58.081Z,9.80
2022-07-30T04:56:58.079Z,9.70
2022-07-30T04:57:58.077Z,9.70
2022-07-30T04:58:58.078Z,9.50
2022-07-30T04:59:58.072Z,9.80
2022-07-30T05:00:58.071Z,10.20
2022-07-30T05:01:58.113Z,10.70
2022-07-30T05:02:58.068Z,10.10
2022-07-30T05:03:58.062Z,10.60
2022-07-30T05:04:58.100Z,10.30
2022-07-30T05:05:58.058Z,10.50
2022-07-30T05:06:58.765Z,9.70
2022-07-30T05:07:58.130Z,10.50
2022-07-30T05:08:58.052Z,10.20
2022-07-30T05:09:58.048Z,10.70
2022-07-30T05:10:58.052Z,10.00
2022-07-30T05:11:58.042Z,9.80
2022-07-30T05:12:58.062Z,10.90
2022-07-30T05:13:58.039Z,10.00
2022-07-30T05:14:58.036Z,9.20
2022-07-30T05:15:58.088Z,9.20
2022-07-30T05:16:58.352Z,9.60
2022-07-30T05:17:58.029Z,9.50
2022-07-30T05:18:58.024Z,10.30
2022-07-30T05:19:58.025Z,9.90
2022-07-30T05:20:58.022Z,9.60
2022-07-30T05:21:58.024Z,8.50
2022-07-30T05:22:58.023Z,9.00
2022-07-30T05:23:58.018Z,9.70
2022-07-30T05:24:58.021Z,9.40
2022-07-30T05:25:58.010Z,9.60
2022-07-30T05:26:58.290Z,9.80
2022-07-30T05:27:58.009Z,9.30
2022-07-30T05:28:58.012Z,9.40
2022-07-30T05:29:58.004Z,10.10
2022-07-30T05:30:58.033Z,10.30
2022-07-30T05:32:00.829Z,10.10
2022-07-30T05:32:58.023Z,10.60
2022-07-30T05:34:02.545Z,10.40
2022-07-30T05:34:58.007Z,10.40
2022-07-30T05:35:57.991Z,10.80
2022-07-30T05:36:58.583Z,11.10
2022-07-30T05:37:57.987Z,10.60
2022-07-30T05:38:57.984Z,11.20
2022-07-30T05:40:02.670Z,11.00
2022-07-30T05:40:57.983Z,11.20
2022-07-30T05:41:57.976Z,10.30
2022-07-30T05:42:57.978Z,10.50
2022-07-30T05:43:57.975Z,9.80
2022-07-30T05:44:57.973Z,10.70
2022-07-30T05:45:58.027Z,9.90
2022-07-30T05:46:58.261Z,10.20
2022-07-30T05:47:57.966Z,10.20
2022-07-30T05:48:58.013Z,12.00
2022-07-30T05:50:01.600Z,11.60
2022-07-30T05:50:57.956Z,11.40
2022-07-30T05:51:57.962Z,12.40
2022-07-30T05:52:57.955Z,12.10
2022-07-30T05:53:57.956Z,12.20
2022-07-30T05:54:57.950Z,13.30
2022-07-30T05:55:57.951Z,13.80
2022-07-30T05:56:58.277Z,14.20
2022-07-30T05:57:57.942Z,14.90
2022-07-30T05:58:57.940Z,15.60
2022-07-30T05:59:57.939Z,16.10
2022-07-30T06:00:57.935Z,16.80
2022-07-30T06:01:58.048Z,18.70
2022-07-30T06:02:57.931Z,17.90
2022-07-30T06:03:57.931Z,19.50
2022-07-30T06:04:58.062Z,20.60
2022-07-30T06:05:57.928Z,21.60
2022-07-30T06:06:58.281Z,22.40
2022-07-30T06:07:57.924Z,24.30
2022-07-30T06:08:57.920Z,26.10
2022-07-30T06:09:57.917Z,26.60
2022-07-30T06:10:57.917Z,28.50
2022-07-30T06:11:57.915Z,28.90
2022-07-30T06:12:57.916Z,28.10
2022-07-30T06:13:57.915Z,29.40
2022-07-30T06:14:57.910Z,28.80
2022-07-30T06:15:57.949Z,29.10
2022-07-30T06:16:58.163Z,27.40
2022-07-30T06:18:01.905Z,28.80
2022-07-30T06:18:57.916Z,28.40
2022-07-30T06:19:57.906Z,27.60
2022-07-30T06:20:57.908Z,32.70
2022-07-30T06:22:05.992Z,40.60
2022-07-30T06:22:57.893Z,43.90
2022-07-30T06:23:57.904Z,43.00
2022-07-30T06:24:57.897Z,45.90
2022-07-30T06:25:57.889Z,44.50
2022-07-30T06:26:58.091Z,46.20
2022-07-30T06:27:57.895Z,46.80
2022-07-30T06:28:57.895Z,43.70
2022-07-30T06:29:57.898Z,46.60
2022-07-30T06:30:57.955Z,48.10
2022-07-30T06:31:57.879Z,50.30
2022-07-30T06:32:57.874Z,50.20
2022-07-30T06:33:57.871Z,49.60
2022-07-30T06:35:04.145Z,48.40
2022-07-30T06:35:57.871Z,50.50
2022-07-30T06:36:58.124Z,51.30
2022-07-30T06:38:05.828Z,52.90
2022-07-30T06:38:57.866Z,51.40
2022-07-30T06:39:58.734Z,53.80
2022-07-30T06:41:02.142Z,52.20
2022-07-30T06:41:57.857Z,53.80
2022-07-30T06:42:57.853Z,54.80
2022-07-30T06:43:57.859Z,55.60
2022-07-30T06:44:57.850Z,56.20
2022-07-30T06:45:57.892Z,54.80
2022-07-30T06:46:58.052Z,54.30
2022-07-30T06:47:57.845Z,55.20
2022-07-30T06:48:57.914Z,52.90
2022-07-30T06:49:57.839Z,53.80
2022-07-30T06:50:57.836Z,53.40
2022-07-30T06:51:57.836Z,53.40
2022-07-30T06:52:57.836Z,52.40
2022-07-30T06:53:57.835Z,54.50
2022-07-30T06:54:57.833Z,53.20
2022-07-30T06:55:58.385Z,51.50
2022-07-30T06:56:57.947Z,53.00
2022-07-30T06:57:57.828Z,54.80
2022-07-30T06:58:57.824Z,55.20
2022-07-30T06:59:57.836Z,55.40
2022-07-30T07:00:57.874Z,53.50
2022-07-30T07:01:57.833Z,52.30
2022-07-30T07:02:57.815Z,50.60
2022-07-30T07:03:57.874Z,50.10
2022-07-30T07:04:57.809Z,47.00
2022-07-30T07:05:57.809Z,45.70
2022-07-30T07:06:58.399Z,43.40
2022-07-30T07:07:59.501Z,43.50
2022-07-30T07:08:57.801Z,43.90
2022-07-30T07:09:57.802Z,42.80
2022-07-30T07:10:57.798Z,44.70
2022-07-30T07:11:57.800Z,43.60
2022-07-30T07:12:57.795Z,42.10
2022-07-30T07:14:01.392Z,40.80
2022-07-30T07:14:57.790Z,41.90
2022-07-30T07:15:57.790Z,39.90
2022-07-30T07:16:57.817Z,40.30
2022-07-30T07:17:57.795Z,40.00
2022-07-30T07:18:57.789Z,38.70
2022-07-30T07:19:59.793Z,38.30
2022-07-30T07:20:57.780Z,36.30
2022-07-30T07:21:57.780Z,36.80
2022-07-30T07:22:57.774Z,37.70
2022-07-30T07:23:57.774Z,37.20
2022-07-30T07:24:57.774Z,36.50
2022-07-30T07:25:57.776Z,35.50
2022-07-30T07:26:58.084Z,34.70
2022-07-30T07:28:12.505Z,35.30
2022-07-30T07:29:00.213Z,35.80
2022-07-30T07:30:01.827Z,34.00
2022-07-30T07:30:57.784Z,35.90
2022-07-30T07:32:06.033Z,35.60
2022-07-30T07:32:57.757Z,33.90
2022-07-30T07:33:57.757Z,34.20
2022-07-30T07:34:58.008Z,31.90
2022-07-30T07:35:57.752Z,31.30
2022-07-30T07:36:58.068Z,30.00
2022-07-30T07:37:57.747Z,31.20
2022-07-30T07:38:57.747Z,30.40
2022-07-30T07:39:57.745Z,29.50
2022-07-30T07:40:57.744Z,29.00
2022-07-30T07:41:57.740Z,29.40
2022-07-30T07:42:57.740Z,28.10
2022-07-30T07:43:57.742Z,27.90
2022-07-30T07:44:57.738Z,27.90
2022-07-30T07:45:57.801Z,27.80
2022-07-30T07:46:57.941Z,26.50
2022-07-30T07:47:57.733Z,25.20
2022-07-30T07:48:57.776Z,26.80
2022-07-30T07:49:57.730Z,25.60
2022-07-30T07:51:00.285Z,25.70
2022-07-30T07:51:57.723Z,25.60
2022-07-30T07:52:57.735Z,24.30
2022-07-30T07:54:19.884Z,24.80
2022-07-30T07:54:57.717Z,23.60
2022-07-30T07:55:57.714Z,23.50
2022-07-30T07:56:57.800Z,23.30
2022-07-30T07:57:57.711Z,23.40
2022-07-30T07:58:57.714Z,23.20
2022-07-30T07:59:57.709Z,24.20
2022-07-30T08:00:57.782Z,23.90
2022-07-30T08:01:57.740Z,23.30
2022-07-30T08:02:57.712Z,21.50
2022-07-30T08:03:57.707Z,23.10
2022-07-30T08:04:57.703Z,22.10
2022-07-30T08:06:05.844Z,22.90
2022-07-30T08:06:57.728Z,21.50
2022-07-30T08:07:57.696Z,20.90
2022-07-30T08:08:57.696Z,21.20
2022-07-30T08:09:57.695Z,20.10
2022-07-30T08:10:57.692Z,20.30
2022-07-30T08:11:57.690Z,19.90
2022-07-30T08:12:57.694Z,20.20
2022-07-30T08:13:57.691Z,21.20
2022-07-30T08:14:57.690Z,19.50
2022-07-30T08:15:57.686Z,20.10
2022-07-30T08:16:57.731Z,18.60
2022-07-30T08:17:57.684Z,19.20
2022-07-30T08:18:57.683Z,19.00
2022-07-30T08:19:57.681Z,19.30
2022-07-30T08:20:57.683Z,19.20
2022-07-30T08:21:57.680Z,20.30
2022-07-30T08:22:57.681Z,20.20
2022-07-30T08:23:57.680Z,18.90
2022-07-30T08:24:57.685Z,20.10
2022-07-30T08:25:57.696Z,19.60
2022-07-30T08:26:57.689Z,20.10
2022-07-30T08:27:57.686Z,19.40
2022-07-30T08:28:57.683Z,19.30
2022-07-30T08:29:57.675Z,18.00
2022-07-30T08:31:00.537Z,19.60
2022-07-30T08:31:57.684Z,19.70
2022-07-30T08:32:57.678Z,19.10
2022-07-30T08:33:57.678Z,19.10
2022-07-30T08:34:57.932Z,18.50
2022-07-30T08:35:59.263Z,17.20
2022-07-30T08:36:57.677Z,17.80
2022-07-30T08:37:57.684Z,17.60
2022-07-30T08:38:57.682Z,17.50
2022-07-30T08:39:57.684Z,18.30
2022-07-30T08:40:57.687Z,17.20
2022-07-30T08:41:57.683Z,15.80
2022-07-30T08:42:57.690Z,15.70
2022-07-30T08:43:57.686Z,15.60
2022-07-30T08:44:57.691Z,15.90
2022-07-30T08:45:57.689Z,15.20
2022-07-30T08:46:57.693Z,15.70
2022-07-30T08:47:57.693Z,15.60
2022-07-30T08:48:57.696Z,15.50
2022-07-30T08:49:57.697Z,15.70
2022-07-30T08:50:57.702Z,15.50
2022-07-30T08:51:57.701Z,14.60
2022-07-30T08:52:57.712Z,15.60
2022-07-30T08:53:57.715Z,15.50
2022-07-30T08:54:57.709Z,15.00
2022-07-30T08:55:58.788Z,14.50
2022-07-30T08:56:57.713Z,14.00
2022-07-30T08:57:57.714Z,13.80
2022-07-30T08:58:57.726Z,14.80
2022-07-30T09:00:00.572Z,13.80
2022-07-30T09:00:57.783Z,13.60
2022-07-30T09:01:57.722Z,14.30
2022-07-30T09:02:57.720Z,13.90
2022-07-30T09:03:57.827Z,13.50
2022-07-30T09:04:57.728Z,13.60
2022-07-30T09:05:57.735Z,13.50
2022-07-30T09:06:57.728Z,13.20
2022-07-30T09:07:57.726Z,13.50
2022-07-30T09:08:57.729Z,12.70
2022-07-30T09:09:57.783Z,12.90
2022-07-30T09:10:57.729Z,12.40
2022-07-30T09:11:57.727Z,12.50
2022-07-30T09:12:57.730Z,13.40
2022-07-30T09:13:57.733Z,13.10
2022-07-30T09:14:57.732Z,12.60
2022-07-30T09:15:57.729Z,13.00
2022-07-30T09:16:57.730Z,12.80
2022-07-30T09:17:57.734Z,12.10
2022-07-30T09:18:57.733Z,12.30
2022-07-30T09:19:57.727Z,12.30
2022-07-30T09:20:57.731Z,12.50
2022-07-30T09:21:57.727Z,12.30
2022-07-30T09:22:57.735Z,12.70
2022-07-30T09:23:57.732Z,12.70
2022-07-30T09:24:57.734Z,12.10
2022-07-30T09:25:57.730Z,12.40
2022-07-30T09:26:57.728Z,11.70
2022-07-30T09:27:57.732Z,11.00
2022-07-30T09:28:57.729Z,11.30
2022-07-30T09:29:57.729Z,11.00
2022-07-30T09:30:57.736Z,11.70
2022-07-30T09:31:57.730Z,11.70
2022-07-30T09:32:57.734Z,12.00
2022-07-30T09:33:57.729Z,11.40
2022-07-30T09:34:57.929Z,11.10
2022-07-30T09:35:57.742Z,10.60
2022-07-30T09:36:57.730Z,10.40
2022-07-30T09:37:57.728Z,10.90
2022-07-30T09:38:57.729Z,10.50
2022-07-30T09:39:59.265Z,11.00
2022-07-30T09:40:58.190Z,9.80
2022-07-30T09:41:57.745Z,9.70
2022-07-30T09:42:57.735Z,8.80
2022-07-30T09:43:57.725Z,9.50
2022-07-30T09:44:57.730Z,9.60
2022-07-30T09:45:57.986Z,10.20
2022-07-30T09:46:57.792Z,10.20
2022-07-30T09:47:57.736Z,9.90
2022-07-30T09:48:57.781Z,9.70
2022-07-30T09:49:57.730Z,9.80
2022-07-30T09:50:57.871Z,9.50
2022-07-30T09:51:57.943Z,9.20
2022-07-30T09:52:57.729Z,10.00
2022-07-30T09:53:57.805Z,10.10
2022-07-30T09:54:57.785Z,9.80
2022-07-30T09:55:57.724Z,9.90
2022-07-30T09:56:57.724Z,9.50
2022-07-30T09:57:58.856Z,9.40
2022-07-30T09:58:57.756Z,9.30
2022-07-30T09:59:57.726Z,8.00
2022-07-30T10:00:57.733Z,7.20
2022-07-30T10:02:01.125Z,7.50
2022-07-30T10:02:57.722Z,6.90
2022-07-30T10:03:57.719Z,7.60
2022-07-30T10:04:57.824Z,7.60
2022-07-30T10:05:57.719Z,7.80
2022-07-30T10:06:57.734Z,8.10
2022-07-30T10:07:57.716Z,8.60
2022-07-30T10:08:57.719Z,9.80
2022-07-30T10:09:57.717Z,9.00
2022-07-30T10:10:57.717Z,7.90
2022-07-30T10:11:57.728Z,7.10
2022-07-30T10:12:57.715Z,8.00
2022-07-30T10:13:57.814Z,7.60
2022-07-30T10:14:57.715Z,6.90
2022-07-30T10:15:57.719Z,7.80
2022-07-30T10:16:57.717Z,8.20
2022-07-30T10:17:57.715Z,9.30
2022-07-30T10:18:57.744Z,7.70
2022-07-30T10:19:57.710Z,7.20
2022-07-30T10:20:57.711Z,7.20
2022-07-30T10:21:57.710Z,6.80
2022-07-30T10:22:57.709Z,5.90
2022-07-30T10:23:57.770Z,6.00
2022-07-30T10:24:57.717Z,6.30
2022-07-30T10:25:57.735Z,6.30
2022-07-30T10:26:57.708Z,6.20
2022-07-30T10:27:58.314Z,5.90
2022-07-30T10:28:57.707Z,6.70
2022-07-30T10:29:57.707Z,6.20
2022-07-30T10:30:57.732Z,7.00
2022-07-30T10:31:57.750Z,7.00
2022-07-30T10:32:57.740Z,6.30
2022-07-30T10:33:57.706Z,7.00
2022-07-30T10:34:58.091Z,6.40
2022-07-30T10:35:57.705Z,6.40
2022-07-30T10:36:57.716Z,6.20
2022-07-30T10:37:57.701Z,5.80
2022-07-30T10:38:57.704Z,5.40
2022-07-30T10:39:57.700Z,5.90
2022-07-30T10:40:57.712Z,6.20
2022-07-30T10:41:57.705Z,6.70
2022-07-30T10:42:57.699Z,6.40
2022-07-30T10:43:57.698Z,6.50
2022-07-30T10:44:57.704Z,6.50
2022-07-30T10:45:57.701Z,7.00
2022-07-30T10:46:57.697Z,6.50
2022-07-30T10:47:57.697Z,6.10
2022-07-30T10:48:57.741Z,6.10
2022-07-30T10:49:57.697Z,5.60
2022-07-30T10:50:57.702Z,5.00
2022-07-30T10:51:57.745Z,5.90
2022-07-30T10:52:57.694Z,5.90
2022-07-30T10:53:57.692Z,5.80
2022-07-30T10:54:57.693Z,5.90
2022-07-30T10:55:57.690Z,5.00
2022-07-30T10:56:57.693Z,4.70
2022-07-30T10:57:57.690Z,4.80
2022-07-30T10:58:57.691Z,5.20
2022-07-30T10:59:57.690Z,5.50
2022-07-30T11:00:57.689Z,5.20
2022-07-30T11:01:57.690Z,5.00
2022-07-30T11:02:57.691Z,4.70
2022-07-30T11:03:57.686Z,4.90
2022-07-30T11:04:57.688Z,4.30
2022-07-30T11:05:57.689Z,5.00
2022-07-30T11:06:57.690Z,4.60
2022-07-30T11:07:57.683Z,4.80
2022-07-30T11:08:58.333Z,4.30
2022-07-30T11:10:05.959Z,4.30
2022-07-30T11:10:57.687Z,4.80
2022-07-30T11:12:01.920Z,4.70
2022-07-30T11:12:57.682Z,4.60
2022-07-30T11:13:57.685Z,3.90
2022-07-30T11:14:57.683Z,4.20
2022-07-30T11:15:57.688Z,4.40
2022-07-30T11:16:57.685Z,4.80
2022-07-30T11:17:57.683Z,4.80
2022-07-30T11:19:27.473Z,5.40
2022-07-30T11:19:57.921Z,4.80
2022-07-30T11:20:57.689Z,4.80
2022-07-30T11:21:57.680Z,4.60
2022-07-30T11:22:57.680Z,4.10
2022-07-30T11:23:57.675Z,4.40
2022-07-30T11:24:57.676Z,4.20
2022-07-30T11:25:57.675Z,4.30
2022-07-30T11:26:57.681Z,4.10
2022-07-30T11:27:57.680Z,4.30
2022-07-30T11:28:57.683Z,4.30
2022-07-30T11:29:57.675Z,4.50
2022-07-30T11:30:57.679Z,4.20
2022-07-30T11:31:58.835Z,4.00
2022-07-30T11:32:57.674Z,3.80
2022-07-30T11:33:57.743Z,3.80
2022-07-30T11:34:57.672Z,3.80
2022-07-30T11:35:57.672Z,3.70
2022-07-30T11:36:57.669Z,3.50
2022-07-30T11:37:57.670Z,3.90
2022-07-30T11:39:05.210Z,4.10
2022-07-30T11:39:57.669Z,4.10
2022-07-30T11:40:57.668Z,4.10
2022-07-30T11:41:57.665Z,4.00
2022-07-30T11:42:57.671Z,3.80
2022-07-30T11:43:57.664Z,3.60
2022-07-30T11:45:02.243Z,4.20
2022-07-30T11:45:57.666Z,4.20
2022-07-30T11:46:57.665Z,3.80
2022-07-30T11:47:57.669Z,3.60
2022-07-30T11:48:57.750Z,3.30
2022-07-30T11:49:57.674Z,3.70
2022-07-30T11:51:00.816Z,3.50
2022-07-30T11:51:57.667Z,3.60
2022-07-30T11:52:57.671Z,3.20
2022-07-30T11:53:57.664Z,3.40
2022-07-30T11:54:57.665Z,3.30
2022-07-30T11:55:57.659Z,3.40
2022-07-30T11:57:02.144Z,3.20
2022-07-30T11:57:57.680Z,2.90
2022-07-30T11:58:57.671Z,3.40
2022-07-30T11:59:57.671Z,3.40
2022-07-30T12:00:57.662Z,3.50
2022-07-30T12:01:57.659Z,3.20
2022-07-30T12:02:59.875Z,3.50
2022-07-30T12:03:57.665Z,3.70
2022-07-30T12:04:57.658Z,3.70
2022-07-30T12:05:57.658Z,3.30
2022-07-30T12:06:57.659Z,3.50
2022-07-30T12:07:57.653Z,3.40
2022-07-30T12:08:58.863Z,4.00
2022-07-30T12:09:57.656Z,3.90
2022-07-30T12:10:57.657Z,3.80
2022-07-30T12:11:57.664Z,4.10
2022-07-30T12:12:57.654Z,4.00
2022-07-30T12:13:57.655Z,3.50
2022-07-30T12:15:01.762Z,3.30
2022-07-30T12:15:57.652Z,3.60
2022-07-30T12:16:57.653Z,3.10
2022-07-30T12:18:17.561Z,3.50
2022-07-30T12:18:57.649Z,3.70
2022-07-30T12:19:57.651Z,3.70
2022-07-30T12:20:59.431Z,4.00
2022-07-30T12:21:57.650Z,3.90
2022-07-30T12:22:57.658Z,3.70
2022-07-30T12:23:57.656Z,3.60
2022-07-30T12:24:57.656Z,3.60
2022-07-30T12:25:58.086Z,3.10
2022-07-30T12:26:57.651Z,3.00
2022-07-30T12:27:57.657Z,3.30
2022-07-30T12:28:57.648Z,3.00
2022-07-30T12:29:57.652Z,3.10
2022-07-30T12:30:57.650Z,3.00
2022-07-30T12:31:57.651Z,3.20
2022-07-30T12:32:57.646Z,2.70
2022-07-30T12:33:59.012Z,3.20
2022-07-30T12:34:57.850Z,2.80
2022-07-30T12:35:57.648Z,2.80
2022-07-30T12:36:57.643Z,2.70
2022-07-30T12:37:57.650Z,2.70
2022-07-30T12:38:57.644Z,3.00
2022-07-30T12:39:57.648Z,3.20
2022-07-30T12:40:57.643Z,3.10
2022-07-30T12:41:57.643Z,3.10
2022-07-30T12:42:57.644Z,3.60
2022-07-30T12:43:57.648Z,3.70
2022-07-30T12:44:57.644Z,3.20
2022-07-30T12:45:57.647Z,3.40
2022-07-30T12:46:57.642Z,3.10
2022-07-30T12:47:57.646Z,3.00
2022-07-30T12:48:57.765Z,3.10
2022-07-30T12:49:57.769Z,3.20
2022-07-30T12:50:57.652Z,3.00
2022-07-30T12:52:00.413Z,2.70
2022-07-30T12:52:57.643Z,2.90
2022-07-30T12:53:57.641Z,2.90
2022-07-30T12:54:57.646Z,3.10
2022-07-30T12:55:57.644Z,3.00
2022-07-30T12:56:57.647Z,3.30
2022-07-30T12:57:57.724Z,3.30
2022-07-30T12:58:57.652Z,3.60
2022-07-30T12:59:57.748Z,3.70
2022-07-30T13:00:57.647Z,3.40
2022-07-30T13:01:57.677Z,3.40
2022-07-30T13:02:57.642Z,3.30
2022-07-30T13:03:57.642Z,3.50
2022-07-30T13:05:10.136Z,2.90
2022-07-30T13:05:57.640Z,3.20
2022-07-30T13:06:57.637Z,3.00
2022-07-30T13:07:57.641Z,2.80
2022-07-30T13:08:57.646Z,3.30
2022-07-30T13:09:57.641Z,2.80
2022-07-30T13:10:58.225Z,2.80
2022-07-30T13:11:57.640Z,2.90
2022-07-30T13:12:57.637Z,3.30
2022-07-30T13:13:57.639Z,2.70
2022-07-30T13:14:57.639Z,2.80